sensor_id;sensor_type;location;lat;lon;timestamp;P1;durP1;ratioP1;P2;durP2;ratioP2
56541;SDS011;42438;53.174;6.730;2023-12-07T00:02:00;17.75;;;9.02;;
56541;SDS011;42438;53.174;6.730;2023-12-07T00:04:31;19.00;;;9.48;;
56541;SDS011;42438;53.174;6.730;2023-12-07T00:07:01;18.17;;;9.45;;
56541;SDS011;42438;53.174;6.730;2023-12-07T00:09:32;17.63;;;9.32;;
56541;SDS011;42438;53.174;6.730;2023-12-07T00:12:03;16.92;;;9.00;;
56541;SDS011;42438;53.174;6.730;2023-12-07T00:14:33;16.73;;;8.90;;
56541;SDS011;42438;53.174;6.730;2023-12-07T00:17:04;14.85;;;8.50;;
56541;SDS011;42438;53.174;6.730;2023-12-07T00:19:35;16.65;;;8.57;;
56541;SDS011;42438;53.174;6.730;2023-12-07T00:22:05;13.65;;;8.75;;
56541;SDS011;42438;53.174;6.730;2023-12-07T00:24:36;16.00;;;8.93;;
56541;SDS011;42438;53.174;6.730;2023-12-07T00:27:06;17.90;;;8.82;;
56541;SDS011;42438;53.174;6.730;2023-12-07T00:29:37;17.52;;;8.57;;
56541;SDS011;42438;53.174;6.730;2023-12-07T00:32:08;16.38;;;9.13;;
56541;SDS011;42438;53.174;6.730;2023-12-07T00:34:38;15.60;;;8.52;;
56541;SDS011;42438;53.174;6.730;2023-12-07T00:37:09;16.27;;;9.52;;
56541;SDS011;42438;53.174;6.730;2023-12-07T00:39:40;17.85;;;9.23;;
56541;SDS011;42438;53.174;6.730;2023-12-07T00:42:11;15.10;;;8.35;;
56541;SDS011;42438;53.174;6.730;2023-12-07T00:44:42;16.48;;;9.68;;
56541;SDS011;42438;53.174;6.730;2023-12-07T00:47:12;17.15;;;8.60;;
56541;SDS011;42438;53.174;6.730;2023-12-07T00:49:43;16.77;;;9.32;;
56541;SDS011;42438;53.174;6.730;2023-12-07T00:52:14;20.05;;;9.32;;
56541;SDS011;42438;53.174;6.730;2023-12-07T00:54:44;18.77;;;9.80;;
56541;SDS011;42438;53.174;6.730;2023-12-07T00:57:15;15.98;;;8.85;;
56541;SDS011;42438;53.174;6.730;2023-12-07T00:59:46;15.80;;;8.00;;
56541;SDS011;42438;53.174;6.730;2023-12-07T01:02:16;18.00;;;9.80;;
56541;SDS011;42438;53.174;6.730;2023-12-07T01:04:47;16.15;;;9.02;;
56541;SDS011;42438;53.174;6.730;2023-12-07T01:07:17;17.38;;;9.02;;
56541;SDS011;42438;53.174;6.730;2023-12-07T01:09:48;18.80;;;9.27;;
56541;SDS011;42438;53.174;6.730;2023-12-07T01:12:19;17.33;;;9.05;;
56541;SDS011;42438;53.174;6.730;2023-12-07T01:14:50;19.48;;;9.25;;
56541;SDS011;42438;53.174;6.730;2023-12-07T01:17:21;17.55;;;9.43;;
56541;SDS011;42438;53.174;6.730;2023-12-07T01:19:52;16.10;;;9.25;;
56541;SDS011;42438;53.174;6.730;2023-12-07T01:22:22;17.40;;;8.30;;
56541;SDS011;42438;53.174;6.730;2023-12-07T01:24:53;16.58;;;9.02;;
56541;SDS011;42438;53.174;6.730;2023-12-07T01:27:24;15.60;;;8.38;;
56541;SDS011;42438;53.174;6.730;2023-12-07T01:29:54;17.83;;;8.65;;
56541;SDS011;42438;53.174;6.730;2023-12-07T01:32:25;15.95;;;9.05;;
56541;SDS011;42438;53.174;6.730;2023-12-07T01:34:56;17.75;;;9.00;;
56541;SDS011;42438;53.174;6.730;2023-12-07T01:37:26;15.95;;;8.38;;
56541;SDS011;42438;53.174;6.730;2023-12-07T01:39:59;17.55;;;8.45;;
56541;SDS011;42438;53.174;6.730;2023-12-07T01:42:30;15.20;;;8.18;;
56541;SDS011;42438;53.174;6.730;2023-12-07T01:45:00;18.77;;;8.55;;
56541;SDS011;42438;53.174;6.730;2023-12-07T01:47:31;16.77;;;8.13;;
56541;SDS011;42438;53.174;6.730;2023-12-07T01:50:03;15.50;;;8.10;;
56541;SDS011;42438;53.174;6.730;2023-12-07T01:52:36;16.77;;;8.90;;
56541;SDS011;42438;53.174;6.730;2023-12-07T01:55:09;16.02;;;7.88;;
56541;SDS011;42438;53.174;6.730;2023-12-07T01:57:41;17.35;;;7.70;;
56541;SDS011;42438;53.174;6.730;2023-12-07T02:00:14;14.32;;;8.10;;
56541;SDS011;42438;53.174;6.730;2023-12-07T02:02:46;14.98;;;7.80;;
56541;SDS011;42438;53.174;6.730;2023-12-07T02:05:17;16.45;;;8.45;;
56541;SDS011;42438;53.174;6.730;2023-12-07T02:07:48;15.45;;;8.10;;
56541;SDS011;42438;53.174;6.730;2023-12-07T02:10:19;15.00;;;8.82;;
56541;SDS011;42438;53.174;6.730;2023-12-07T02:12:50;16.13;;;7.85;;
56541;SDS011;42438;53.174;6.730;2023-12-07T02:15:23;15.70;;;8.13;;
56541;SDS011;42438;53.174;6.730;2023-12-07T02:17:57;13.00;;;7.55;;
56541;SDS011;42438;53.174;6.730;2023-12-07T02:20:55;14.05;;;7.88;;
56541;SDS011;42438;53.174;6.730;2023-12-07T02:23:34;15.82;;;7.78;;
56541;SDS011;42438;53.174;6.730;2023-12-07T02:26:07;13.65;;;8.45;;
56541;SDS011;42438;53.174;6.730;2023-12-07T02:28:40;16.20;;;7.75;;
56541;SDS011;42438;53.174;6.730;2023-12-07T02:31:11;12.30;;;7.07;;
56541;SDS011;42438;53.174;6.730;2023-12-07T02:33:41;16.13;;;8.13;;
56541;SDS011;42438;53.174;6.730;2023-12-07T02:36:12;14.15;;;7.07;;
56541;SDS011;42438;53.174;6.730;2023-12-07T02:38:48;14.98;;;7.28;;
56541;SDS011;42438;53.174;6.730;2023-12-07T02:41:21;15.70;;;7.43;;
56541;SDS011;42438;53.174;6.730;2023-12-07T02:43:52;16.75;;;7.47;;
56541;SDS011;42438;53.174;6.730;2023-12-07T02:46:25;14.35;;;7.50;;
56541;SDS011;42438;53.174;6.730;2023-12-07T02:48:56;15.18;;;7.43;;
56541;SDS011;42438;53.174;6.730;2023-12-07T02:51:28;12.98;;;7.22;;
56541;SDS011;42438;53.174;6.730;2023-12-07T02:53:59;12.63;;;7.43;;
56541;SDS011;42438;53.174;6.730;2023-12-07T02:56:29;15.55;;;7.28;;
56541;SDS011;42438;53.174;6.730;2023-12-07T02:59:00;12.98;;;6.80;;
56541;SDS011;42438;53.174;6.730;2023-12-07T03:01:30;13.00;;;6.85;;
56541;SDS011;42438;53.174;6.730;2023-12-07T03:04:01;17.75;;;7.75;;
56541;SDS011;42438;53.174;6.730;2023-12-07T03:06:32;13.25;;;7.65;;
56541;SDS011;42438;53.174;6.730;2023-12-07T03:09:02;14.85;;;7.80;;
56541;SDS011;42438;53.174;6.730;2023-12-07T03:11:33;15.23;;;7.20;;
56541;SDS011;42438;53.174;6.730;2023-12-07T03:14:04;13.68;;;6.90;;
56541;SDS011;42438;53.174;6.730;2023-12-07T03:16:34;12.60;;;7.18;;
56541;SDS011;42438;53.174;6.730;2023-12-07T03:19:05;13.68;;;6.70;;
56541;SDS011;42438;53.174;6.730;2023-12-07T03:21:38;15.20;;;7.10;;
56541;SDS011;42438;53.174;6.730;2023-12-07T03:24:09;15.57;;;7.03;;
56541;SDS011;42438;53.174;6.730;2023-12-07T03:26:40;13.77;;;6.55;;
56541;SDS011;42438;53.174;6.730;2023-12-07T03:29:11;14.13;;;6.72;;
56541;SDS011;42438;53.174;6.730;2023-12-07T03:31:42;12.30;;;7.15;;
56541;SDS011;42438;53.174;6.730;2023-12-07T03:34:12;12.55;;;6.72;;
56541;SDS011;42438;53.174;6.730;2023-12-07T03:36:45;14.05;;;7.22;;
56541;SDS011;42438;53.174;6.730;2023-12-07T03:39:17;13.45;;;7.25;;
56541;SDS011;42438;53.174;6.730;2023-12-07T03:41:55;16.70;;;6.97;;
56541;SDS011;42438;53.174;6.730;2023-12-07T03:44:26;12.45;;;6.97;;
56541;SDS011;42438;53.174;6.730;2023-12-07T03:46:56;15.43;;;7.15;;
56541;SDS011;42438;53.174;6.730;2023-12-07T03:49:27;15.50;;;7.40;;
56541;SDS011;42438;53.174;6.730;2023-12-07T03:51:57;14.60;;;6.90;;
56541;SDS011;42438;53.174;6.730;2023-12-07T03:54:28;14.88;;;8.00;;
56541;SDS011;42438;53.174;6.730;2023-12-07T03:56:59;12.90;;;6.95;;
56541;SDS011;42438;53.174;6.730;2023-12-07T03:59:30;15.38;;;7.22;;
56541;SDS011;42438;53.174;6.730;2023-12-07T04:02:01;13.30;;;7.13;;
56541;SDS011;42438;53.174;6.730;2023-12-07T04:04:31;14.88;;;7.13;;
56541;SDS011;42438;53.174;6.730;2023-12-07T04:07:02;14.85;;;7.68;;
56541;SDS011;42438;53.174;6.730;2023-12-07T04:09:33;14.70;;;6.70;;
56541;SDS011;42438;53.174;6.730;2023-12-07T04:12:03;11.60;;;6.50;;
56541;SDS011;42438;53.174;6.730;2023-12-07T04:14:34;12.10;;;6.50;;
56541;SDS011;42438;53.174;6.730;2023-12-07T04:17:05;12.38;;;7.57;;
56541;SDS011;42438;53.174;6.730;2023-12-07T04:19:35;13.07;;;7.15;;
56541;SDS011;42438;53.174;6.730;2023-12-07T04:22:06;11.20;;;7.13;;
56541;SDS011;42438;53.174;6.730;2023-12-07T04:24:37;13.80;;;7.07;;
56541;SDS011;42438;53.174;6.730;2023-12-07T04:27:07;12.75;;;6.50;;
56541;SDS011;42438;53.174;6.730;2023-12-07T04:29:38;15.15;;;6.90;;
56541;SDS011;42438;53.174;6.730;2023-12-07T04:32:08;13.23;;;7.35;;
56541;SDS011;42438;53.174;6.730;2023-12-07T04:34:39;13.80;;;7.53;;
56541;SDS011;42438;53.174;6.730;2023-12-07T04:37:10;13.48;;;6.43;;
56541;SDS011;42438;53.174;6.730;2023-12-07T04:39:40;12.05;;;6.55;;
56541;SDS011;42438;53.174;6.730;2023-12-07T04:42:11;14.90;;;6.70;;
56541;SDS011;42438;53.174;6.730;2023-12-07T04:44:42;14.93;;;6.40;;
56541;SDS011;42438;53.174;6.730;2023-12-07T04:47:12;13.23;;;7.20;;
56541;SDS011;42438;53.174;6.730;2023-12-07T04:49:43;15.05;;;7.00;;
56541;SDS011;42438;53.174;6.730;2023-12-07T04:52:13;14.50;;;6.68;;
56541;SDS011;42438;53.174;6.730;2023-12-07T04:54:44;11.52;;;6.60;;
56541;SDS011;42438;53.174;6.730;2023-12-07T04:57:15;13.32;;;7.35;;
56541;SDS011;42438;53.174;6.730;2023-12-07T04:59:46;12.93;;;7.13;;
56541;SDS011;42438;53.174;6.730;2023-12-07T05:02:17;14.98;;;7.18;;
56541;SDS011;42438;53.174;6.730;2023-12-07T05:04:47;14.57;;;7.25;;
56541;SDS011;42438;53.174;6.730;2023-12-07T05:07:18;11.77;;;6.43;;
56541;SDS011;42438;53.174;6.730;2023-12-07T05:09:50;13.95;;;6.75;;
56541;SDS011;42438;53.174;6.730;2023-12-07T05:12:23;14.38;;;7.63;;
56541;SDS011;42438;53.174;6.730;2023-12-07T05:14:54;13.00;;;6.85;;
56541;SDS011;42438;53.174;6.730;2023-12-07T05:17:24;12.02;;;6.90;;
56541;SDS011;42438;53.174;6.730;2023-12-07T05:19:55;17.23;;;7.90;;
56541;SDS011;42438;53.174;6.730;2023-12-07T05:22:25;16.42;;;7.57;;
56541;SDS011;42438;53.174;6.730;2023-12-07T05:24:56;13.75;;;7.85;;
56541;SDS011;42438;53.174;6.730;2023-12-07T05:27:27;13.45;;;7.22;;
56541;SDS011;42438;53.174;6.730;2023-12-07T05:29:58;13.95;;;7.18;;
56541;SDS011;42438;53.174;6.730;2023-12-07T05:32:28;16.15;;;7.45;;
56541;SDS011;42438;53.174;6.730;2023-12-07T05:34:59;15.07;;;7.63;;
56541;SDS011;42438;53.174;6.730;2023-12-07T05:37:29;15.32;;;7.60;;
56541;SDS011;42438;53.174;6.730;2023-12-07T05:40:00;15.23;;;7.95;;
56541;SDS011;42438;53.174;6.730;2023-12-07T05:42:31;16.67;;;7.43;;
56541;SDS011;42438;53.174;6.730;2023-12-07T05:45:01;16.98;;;7.85;;
56541;SDS011;42438;53.174;6.730;2023-12-07T05:47:32;15.18;;;7.93;;
56541;SDS011;42438;53.174;6.730;2023-12-07T05:50:03;14.68;;;8.43;;
56541;SDS011;42438;53.174;6.730;2023-12-07T05:52:34;16.02;;;8.20;;
56541;SDS011;42438;53.174;6.730;2023-12-07T05:55:05;16.55;;;8.27;;
56541;SDS011;42438;53.174;6.730;2023-12-07T05:57:36;17.83;;;8.93;;
56541;SDS011;42438;53.174;6.730;2023-12-07T06:00:06;15.85;;;8.23;;
56541;SDS011;42438;53.174;6.730;2023-12-07T06:02:39;15.57;;;8.32;;
56541;SDS011;42438;53.174;6.730;2023-12-07T06:05:10;17.33;;;7.93;;
56541;SDS011;42438;53.174;6.730;2023-12-07T06:07:41;15.75;;;8.25;;
56541;SDS011;42438;53.174;6.730;2023-12-07T06:10:11;15.75;;;8.25;;
56541;SDS011;42438;53.174;6.730;2023-12-07T06:12:42;17.67;;;9.00;;
56541;SDS011;42438;53.174;6.730;2023-12-07T06:15:13;15.65;;;8.32;;
56541;SDS011;42438;53.174;6.730;2023-12-07T06:17:43;16.70;;;8.82;;
56541;SDS011;42438;53.174;6.730;2023-12-07T06:20:14;21.65;;;8.93;;
56541;SDS011;42438;53.174;6.730;2023-12-07T06:22:45;17.65;;;9.15;;
56541;SDS011;42438;53.174;6.730;2023-12-07T06:25:16;19.50;;;8.77;;
56541;SDS011;42438;53.174;6.730;2023-12-07T06:27:47;18.90;;;9.48;;
56541;SDS011;42438;53.174;6.730;2023-12-07T06:30:17;21.05;;;8.85;;
56541;SDS011;42438;53.174;6.730;2023-12-07T06:32:48;19.40;;;8.55;;
56541;SDS011;42438;53.174;6.730;2023-12-07T06:35:18;22.65;;;9.43;;
56541;SDS011;42438;53.174;6.730;2023-12-07T06:37:49;18.13;;;8.10;;
56541;SDS011;42438;53.174;6.730;2023-12-07T06:40:20;16.65;;;8.25;;
56541;SDS011;42438;53.174;6.730;2023-12-07T06:42:51;17.58;;;8.52;;
56541;SDS011;42438;53.174;6.730;2023-12-07T06:45:21;19.67;;;8.23;;
56541;SDS011;42438;53.174;6.730;2023-12-07T06:47:52;17.02;;;8.50;;
56541;SDS011;42438;53.174;6.730;2023-12-07T06:50:22;18.92;;;8.35;;
56541;SDS011;42438;53.174;6.730;2023-12-07T06:52:53;17.33;;;9.32;;
56541;SDS011;42438;53.174;6.730;2023-12-07T06:55:24;18.75;;;9.27;;
56541;SDS011;42438;53.174;6.730;2023-12-07T06:57:54;17.80;;;8.35;;
56541;SDS011;42438;53.174;6.730;2023-12-07T07:00:25;15.23;;;7.85;;
56541;SDS011;42438;53.174;6.730;2023-12-07T07:02:56;18.92;;;9.07;;
56541;SDS011;42438;53.174;6.730;2023-12-07T07:05:27;15.70;;;8.43;;
56541;SDS011;42438;53.174;6.730;2023-12-07T07:07:59;20.63;;;8.70;;
56541;SDS011;42438;53.174;6.730;2023-12-07T07:10:30;18.70;;;9.10;;
56541;SDS011;42438;53.174;6.730;2023-12-07T07:13:01;18.30;;;8.57;;
56541;SDS011;42438;53.174;6.730;2023-12-07T07:15:34;16.73;;;8.38;;
56541;SDS011;42438;53.174;6.730;2023-12-07T07:18:05;17.98;;;7.95;;
56541;SDS011;42438;53.174;6.730;2023-12-07T07:20:35;17.70;;;8.00;;
56541;SDS011;42438;53.174;6.730;2023-12-07T07:23:06;17.45;;;8.63;;
56541;SDS011;42438;53.174;6.730;2023-12-07T07:25:38;16.55;;;8.77;;
56541;SDS011;42438;53.174;6.730;2023-12-07T07:28:09;17.00;;;7.95;;
56541;SDS011;42438;53.174;6.730;2023-12-07T07:30:39;17.67;;;8.82;;
56541;SDS011;42438;53.174;6.730;2023-12-07T07:33:10;16.80;;;9.25;;
56541;SDS011;42438;53.174;6.730;2023-12-07T07:35:40;17.55;;;8.40;;
56541;SDS011;42438;53.174;6.730;2023-12-07T07:38:11;21.45;;;9.05;;
56541;SDS011;42438;53.174;6.730;2023-12-07T07:40:42;22.13;;;9.40;;
56541;SDS011;42438;53.174;6.730;2023-12-07T07:43:12;17.13;;;7.97;;
56541;SDS011;42438;53.174;6.730;2023-12-07T07:45:43;19.38;;;8.93;;
56541;SDS011;42438;53.174;6.730;2023-12-07T07:48:14;14.15;;;7.72;;
56541;SDS011;42438;53.174;6.730;2023-12-07T07:50:44;14.32;;;7.22;;
56541;SDS011;42438;53.174;6.730;2023-12-07T07:53:15;17.02;;;7.82;;
56541;SDS011;42438;53.174;6.730;2023-12-07T07:55:46;18.55;;;9.45;;
56541;SDS011;42438;53.174;6.730;2023-12-07T07:58:17;18.17;;;9.02;;
56541;SDS011;42438;53.174;6.730;2023-12-07T08:00:47;16.13;;;7.18;;
56541;SDS011;42438;53.174;6.730;2023-12-07T08:03:18;15.68;;;7.57;;
56541;SDS011;42438;53.174;6.730;2023-12-07T08:05:49;20.45;;;8.77;;
56541;SDS011;42438;53.174;6.730;2023-12-07T08:08:19;17.38;;;8.73;;
56541;SDS011;42438;53.174;6.730;2023-12-07T08:10:51;17.42;;;8.45;;
56541;SDS011;42438;53.174;6.730;2023-12-07T08:13:22;18.25;;;8.32;;
56541;SDS011;42438;53.174;6.730;2023-12-07T08:15:53;18.35;;;8.85;;
56541;SDS011;42438;53.174;6.730;2023-12-07T08:18:23;19.60;;;9.55;;
56541;SDS011;42438;53.174;6.730;2023-12-07T08:20:54;19.83;;;9.75;;
56541;SDS011;42438;53.174;6.730;2023-12-07T08:23:25;23.55;;;11.10;;
56541;SDS011;42438;53.174;6.730;2023-12-07T08:25:55;20.88;;;10.57;;
56541;SDS011;42438;53.174;6.730;2023-12-07T08:28:27;21.88;;;11.63;;
56541;SDS011;42438;53.174;6.730;2023-12-07T08:30:58;22.25;;;11.75;;
56541;SDS011;42438;53.174;6.730;2023-12-07T08:33:28;21.40;;;10.73;;
56541;SDS011;42438;53.174;6.730;2023-12-07T08:36:00;21.42;;;9.77;;
56541;SDS011;42438;53.174;6.730;2023-12-07T08:38:31;20.50;;;10.02;;
56541;SDS011;42438;53.174;6.730;2023-12-07T08:41:02;23.90;;;11.88;;
56541;SDS011;42438;53.174;6.730;2023-12-07T08:43:33;25.08;;;12.00;;
56541;SDS011;42438;53.174;6.730;2023-12-07T08:46:03;25.88;;;12.05;;
56541;SDS011;42438;53.174;6.730;2023-12-07T08:51:08;27.20;;;13.25;;
56541;SDS011;42438;53.174;6.730;2023-12-07T08:53:38;24.58;;;11.95;;
56541;SDS011;42438;53.174;6.730;2023-12-07T08:56:09;27.73;;;13.20;;
56541;SDS011;42438;53.174;6.730;2023-12-07T08:58:40;25.65;;;12.93;;
56541;SDS011;42438;53.174;6.730;2023-12-07T09:01:11;24.95;;;12.85;;
56541;SDS011;42438;53.174;6.730;2023-12-07T09:03:42;30.45;;;13.57;;
56541;SDS011;42438;53.174;6.730;2023-12-07T09:06:12;29.38;;;13.77;;
56541;SDS011;42438;53.174;6.730;2023-12-07T09:08:43;28.60;;;13.77;;
56541;SDS011;42438;53.174;6.730;2023-12-07T09:11:14;27.50;;;13.23;;
56541;SDS011;42438;53.174;6.730;2023-12-07T09:13:44;26.77;;;12.93;;
56541;SDS011;42438;53.174;6.730;2023-12-07T09:16:15;27.25;;;12.45;;
56541;SDS011;42438;53.174;6.730;2023-12-07T09:18:45;27.98;;;13.82;;
56541;SDS011;42438;53.174;6.730;2023-12-07T09:21:16;31.30;;;14.13;;
56541;SDS011;42438;53.174;6.730;2023-12-07T09:23:47;29.92;;;13.90;;
56541;SDS011;42438;53.174;6.730;2023-12-07T09:26:17;28.38;;;14.30;;
56541;SDS011;42438;53.174;6.730;2023-12-07T09:28:48;28.55;;;14.00;;
56541;SDS011;42438;53.174;6.730;2023-12-07T09:31:19;27.02;;;13.40;;
56541;SDS011;42438;53.174;6.730;2023-12-07T09:33:49;27.02;;;12.85;;
56541;SDS011;42438;53.174;6.730;2023-12-07T09:36:20;32.35;;;14.07;;
56541;SDS011;42438;53.174;6.730;2023-12-07T09:38:54;30.30;;;14.18;;
56541;SDS011;42438;53.174;6.730;2023-12-07T09:41:24;33.65;;;14.50;;
56541;SDS011;42438;53.174;6.730;2023-12-07T09:43:58;33.17;;;14.13;;
56541;SDS011;42438;53.174;6.730;2023-12-07T09:46:30;31.98;;;15.02;;
56541;SDS011;42438;53.174;6.730;2023-12-07T09:49:02;30.35;;;15.93;;
56541;SDS011;42438;53.174;6.730;2023-12-07T09:51:32;32.35;;;14.95;;
56541;SDS011;42438;53.174;6.730;2023-12-07T09:54:04;31.25;;;15.55;;
56541;SDS011;42438;53.174;6.730;2023-12-07T09:56:35;36.85;;;17.25;;
56541;SDS011;42438;53.174;6.730;2023-12-07T09:59:06;29.67;;;14.73;;
56541;SDS011;42438;53.174;6.730;2023-12-07T10:01:37;29.42;;;15.13;;
56541;SDS011;42438;53.174;6.730;2023-12-07T10:04:21;31.05;;;15.68;;
56541;SDS011;42438;53.174;6.730;2023-12-07T10:06:56;31.98;;;15.15;;
56541;SDS011;42438;53.174;6.730;2023-12-07T10:09:26;29.63;;;15.15;;
56541;SDS011;42438;53.174;6.730;2023-12-07T10:12:03;31.85;;;15.02;;
56541;SDS011;42438;53.174;6.730;2023-12-07T10:14:35;28.90;;;14.02;;
56541;SDS011;42438;53.174;6.730;2023-12-07T10:17:05;28.60;;;14.70;;
56541;SDS011;42438;53.174;6.730;2023-12-07T10:19:36;31.35;;;15.07;;
56541;SDS011;42438;53.174;6.730;2023-12-07T10:22:13;27.92;;;14.35;;
56541;SDS011;42438;53.174;6.730;2023-12-07T10:24:47;26.67;;;13.73;;
56541;SDS011;42438;53.174;6.730;2023-12-07T10:29:49;27.15;;;13.77;;
56541;SDS011;42438;53.174;6.730;2023-12-07T10:32:21;32.15;;;15.40;;
56541;SDS011;42438;53.174;6.730;2023-12-07T10:34:52;30.25;;;14.90;;
56541;SDS011;42438;53.174;6.730;2023-12-07T10:37:23;27.10;;;13.82;;
56541;SDS011;42438;53.174;6.730;2023-12-07T10:39:54;28.58;;;13.52;;
56541;SDS011;42438;53.174;6.730;2023-12-07T10:42:25;28.38;;;14.35;;
56541;SDS011;42438;53.174;6.730;2023-12-07T10:45:03;29.77;;;14.00;;
56541;SDS011;42438;53.174;6.730;2023-12-07T10:47:37;25.83;;;13.23;;
56541;SDS011;42438;53.174;6.730;2023-12-07T10:50:09;27.75;;;14.52;;
56541;SDS011;42438;53.174;6.730;2023-12-07T10:52:44;27.40;;;12.95;;
56541;SDS011;42438;53.174;6.730;2023-12-07T10:55:34;22.70;;;12.10;;
56541;SDS011;42438;53.174;6.730;2023-12-07T10:58:16;27.95;;;13.43;;
56541;SDS011;42438;53.174;6.730;2023-12-07T11:00:47;24.35;;;12.15;;
56541;SDS011;42438;53.174;6.730;2023-12-07T11:03:18;22.40;;;13.18;;
56541;SDS011;42438;53.174;6.730;2023-12-07T11:05:51;24.13;;;11.68;;
56541;SDS011;42438;53.174;6.730;2023-12-07T11:08:25;24.02;;;11.90;;
56541;SDS011;42438;53.174;6.730;2023-12-07T11:11:12;26.02;;;12.75;;
56541;SDS011;42438;53.174;6.730;2023-12-07T11:13:58;22.48;;;11.82;;
56541;SDS011;42438;53.174;6.730;2023-12-07T11:16:36;21.33;;;10.38;;
56541;SDS011;42438;53.174;6.730;2023-12-07T11:22:05;26.08;;;12.80;;
56541;SDS011;42438;53.174;6.730;2023-12-07T11:24:37;24.20;;;12.25;;
56541;SDS011;42438;53.174;6.730;2023-12-07T11:27:08;23.17;;;10.93;;
56541;SDS011;42438;53.174;6.730;2023-12-07T11:29:38;21.25;;;11.05;;
56541;SDS011;42438;53.174;6.730;2023-12-07T11:32:10;19.15;;;10.18;;
56541;SDS011;42438;53.174;6.730;2023-12-07T11:34:42;21.25;;;10.50;;
56541;SDS011;42438;53.174;6.730;2023-12-07T11:37:15;22.88;;;11.65;;
56541;SDS011;42438;53.174;6.730;2023-12-07T11:39:50;24.40;;;11.38;;
56541;SDS011;42438;53.174;6.730;2023-12-07T11:42:20;22.75;;;11.80;;
56541;SDS011;42438;53.174;6.730;2023-12-07T11:44:51;23.33;;;11.27;;
56541;SDS011;42438;53.174;6.730;2023-12-07T11:47:22;22.77;;;12.13;;
56541;SDS011;42438;53.174;6.730;2023-12-07T11:49:53;24.45;;;12.43;;
56541;SDS011;42438;53.174;6.730;2023-12-07T11:52:23;24.13;;;12.05;;
56541;SDS011;42438;53.174;6.730;2023-12-07T11:54:56;24.13;;;12.30;;
56541;SDS011;42438;53.174;6.730;2023-12-07T11:57:27;21.25;;;11.65;;
56541;SDS011;42438;53.174;6.730;2023-12-07T11:59:57;23.65;;;12.57;;
56541;SDS011;42438;53.174;6.730;2023-12-07T12:02:29;22.77;;;12.63;;
56541;SDS011;42438;53.174;6.730;2023-12-07T12:05:04;21.70;;;12.23;;
56541;SDS011;42438;53.174;6.730;2023-12-07T12:07:35;23.52;;;12.35;;
56541;SDS011;42438;53.174;6.730;2023-12-07T12:10:05;22.23;;;11.38;;
56541;SDS011;42438;53.174;6.730;2023-12-07T12:12:36;20.75;;;10.57;;
56541;SDS011;42438;53.174;6.730;2023-12-07T12:15:07;22.67;;;12.95;;
56541;SDS011;42438;53.174;6.730;2023-12-07T12:17:38;21.90;;;11.40;;
56541;SDS011;42438;53.174;6.730;2023-12-07T12:20:09;21.60;;;12.27;;
56541;SDS011;42438;53.174;6.730;2023-12-07T12:22:40;23.08;;;12.00;;
56541;SDS011;42438;53.174;6.730;2023-12-07T12:25:11;21.02;;;11.68;;
56541;SDS011;42438;53.174;6.730;2023-12-07T12:27:42;27.63;;;13.25;;
56541;SDS011;42438;53.174;6.730;2023-12-07T12:30:14;26.05;;;13.10;;
56541;SDS011;42438;53.174;6.730;2023-12-07T12:32:46;22.92;;;12.32;;
56541;SDS011;42438;53.174;6.730;2023-12-07T12:35:17;25.55;;;12.32;;
56541;SDS011;42438;53.174;6.730;2023-12-07T12:37:48;27.25;;;11.93;;
56541;SDS011;42438;53.174;6.730;2023-12-07T12:40:20;23.80;;;13.10;;
56541;SDS011;42438;53.174;6.730;2023-12-07T12:42:52;25.98;;;12.18;;
56541;SDS011;42438;53.174;6.730;2023-12-07T12:45:23;21.17;;;11.65;;
56541;SDS011;42438;53.174;6.730;2023-12-07T12:47:54;32.83;;;13.70;;
56541;SDS011;42438;53.174;6.730;2023-12-07T12:50:35;29.40;;;13.77;;
56541;SDS011;42438;53.174;6.730;2023-12-07T12:53:10;27.45;;;12.80;;
56541;SDS011;42438;53.174;6.730;2023-12-07T12:55:41;25.48;;;12.45;;
56541;SDS011;42438;53.174;6.730;2023-12-07T12:58:12;27.67;;;13.68;;
56541;SDS011;42438;53.174;6.730;2023-12-07T13:00:44;32.30;;;14.48;;
56541;SDS011;42438;53.174;6.730;2023-12-07T13:03:15;27.85;;;13.90;;
56541;SDS011;42438;53.174;6.730;2023-12-07T13:05:45;30.77;;;14.05;;
56541;SDS011;42438;53.174;6.730;2023-12-07T13:08:17;38.88;;;15.90;;
56541;SDS011;42438;53.174;6.730;2023-12-07T13:10:48;32.70;;;14.30;;
56541;SDS011;42438;53.174;6.730;2023-12-07T13:13:19;32.22;;;14.23;;
56541;SDS011;42438;53.174;6.730;2023-12-07T13:15:50;35.83;;;13.65;;
56541;SDS011;42438;53.174;6.730;2023-12-07T13:18:21;38.15;;;15.48;;
56541;SDS011;42438;53.174;6.730;2023-12-07T13:20:52;40.97;;;15.90;;
56541;SDS011;42438;53.174;6.730;2023-12-07T13:23:23;33.53;;;15.10;;
56541;SDS011;42438;53.174;6.730;2023-12-07T13:25:54;32.03;;;15.10;;
56541;SDS011;42438;53.174;6.730;2023-12-07T13:28:24;34.38;;;14.85;;
56541;SDS011;42438;53.174;6.730;2023-12-07T13:30:55;31.80;;;15.30;;
56541;SDS011;42438;53.174;6.730;2023-12-07T13:33:26;37.80;;;15.80;;
56541;SDS011;42438;53.174;6.730;2023-12-07T13:35:56;30.80;;;14.52;;
56541;SDS011;42438;53.174;6.730;2023-12-07T13:38:27;37.92;;;17.10;;
56541;SDS011;42438;53.174;6.730;2023-12-07T13:41:00;38.15;;;16.92;;
56541;SDS011;42438;53.174;6.730;2023-12-07T13:43:32;42.33;;;16.17;;
56541;SDS011;42438;53.174;6.730;2023-12-07T13:46:04;42.15;;;18.25;;
56541;SDS011;42438;53.174;6.730;2023-12-07T13:48:36;43.10;;;16.55;;
56541;SDS011;42438;53.174;6.730;2023-12-07T13:51:07;57.67;;;16.10;;
56541;SDS011;42438;53.174;6.730;2023-12-07T13:53:38;39.72;;;16.27;;
56541;SDS011;42438;53.174;6.730;2023-12-07T13:56:09;38.17;;;17.92;;
56541;SDS011;42438;53.174;6.730;2023-12-07T13:58:40;41.33;;;17.15;;
56541;SDS011;42438;53.174;6.730;2023-12-07T14:01:11;41.20;;;16.60;;
56541;SDS011;42438;53.174;6.730;2023-12-07T14:03:42;40.47;;;17.98;;
56541;SDS011;42438;53.174;6.730;2023-12-07T14:06:20;45.40;;;16.67;;
56541;SDS011;42438;53.174;6.730;2023-12-07T14:08:52;43.83;;;16.98;;
56541;SDS011;42438;53.174;6.730;2023-12-07T14:11:23;47.78;;;17.30;;
56541;SDS011;42438;53.174;6.730;2023-12-07T14:13:53;40.33;;;17.00;;
56541;SDS011;42438;53.174;6.730;2023-12-07T14:16:24;44.65;;;17.30;;
56541;SDS011;42438;53.174;6.730;2023-12-07T14:18:55;47.75;;;17.02;;
56541;SDS011;42438;53.174;6.730;2023-12-07T14:21:25;46.75;;;15.98;;
56541;SDS011;42438;53.174;6.730;2023-12-07T14:23:56;50.47;;;16.48;;
56541;SDS011;42438;53.174;6.730;2023-12-07T14:26:28;43.03;;;17.25;;
56541;SDS011;42438;53.174;6.730;2023-12-07T14:28:58;48.45;;;17.95;;
56541;SDS011;42438;53.174;6.730;2023-12-07T14:31:29;47.92;;;17.65;;
56541;SDS011;42438;53.174;6.730;2023-12-07T14:34:02;45.05;;;16.17;;
56541;SDS011;42438;53.174;6.730;2023-12-07T14:36:33;44.13;;;17.90;;
56541;SDS011;42438;53.174;6.730;2023-12-07T14:39:04;49.83;;;17.23;;
56541;SDS011;42438;53.174;6.730;2023-12-07T14:41:36;50.30;;;17.38;;
56541;SDS011;42438;53.174;6.730;2023-12-07T14:44:07;49.83;;;16.30;;
56541;SDS011;42438;53.174;6.730;2023-12-07T14:46:38;49.08;;;17.55;;
56541;SDS011;42438;53.174;6.730;2023-12-07T14:49:08;53.47;;;18.25;;
56541;SDS011;42438;53.174;6.730;2023-12-07T14:51:39;46.58;;;16.60;;
56541;SDS011;42438;53.174;6.730;2023-12-07T14:54:10;51.53;;;17.27;;
56541;SDS011;42438;53.174;6.730;2023-12-07T14:56:41;48.85;;;17.85;;
56541;SDS011;42438;53.174;6.730;2023-12-07T14:59:12;52.42;;;18.33;;
56541;SDS011;42438;53.174;6.730;2023-12-07T15:01:43;62.15;;;18.52;;